Beaverdale Heights, Iowa
Current Conditions -  °F | °C
As of 4:53 AM on Monday 22 Dec 2014 (Local Time) from KBRL Reporting Station
Light Rain Light Rain  
Wind Chill: 32°   Ceiling: 5000
Heat Index: 39°   Visibility: 10mi
Dew Point: 33°   Wind: 12mph
Humidity: 79%   Direction: 140°SE
Pressure: 29.79"   Gusts: NA
Location:  40.8198°N, 91.2162°W
Report Text: KBRL 221053Z AUTO 14010KT 10SM -RA SCT037 OVC050 04/01 A2979 RMK AO2 SLP092 P0000 T00390006
Loading
Personal Weather Stations






























Interactive Weather Map New forecast layout! Learn more

10-Day Weather Forecast

Advertisements
Track Severe Weather on mobile